sensor_id;sensor_type;location;lat;lon;timestamp;P1;durP1;ratioP1;P2;durP2;ratioP2
3843;SDS011;1937;51.444;6.484;2022-12-01T00:01:36;42.27;;;16.20;;
3843;SDS011;1937;51.444;6.484;2022-12-01T00:04:04;43.83;;;17.90;;
3843;SDS011;1937;51.444;6.484;2022-12-01T00:06:34;48.87;;;18.37;;
3843;SDS011;1937;51.444;6.484;2022-12-01T00:09:04;39.07;;;16.73;;
3843;SDS011;1937;51.444;6.484;2022-12-01T00:11:51;44.63;;;17.30;;
3843;SDS011;1937;51.444;6.484;2022-12-01T00:14:20;49.90;;;20.07;;
3843;SDS011;1937;51.444;6.484;2022-12-01T00:16:48;43.33;;;17.87;;
3843;SDS011;1937;51.444;6.484;2022-12-01T00:19:16;50.07;;;20.80;;
3843;SDS011;1937;51.444;6.484;2022-12-01T00:21:46;50.47;;;20.87;;
3843;SDS011;1937;51.444;6.484;2022-12-01T00:24:14;56.00;;;21.97;;
3843;SDS011;1937;51.444;6.484;2022-12-01T00:26:43;54.67;;;20.27;;
3843;SDS011;1937;51.444;6.484;2022-12-01T00:29:11;57.63;;;21.60;;
3843;SDS011;1937;51.444;6.484;2022-12-01T00:31:40;63.10;;;22.73;;
3843;SDS011;1937;51.444;6.484;2022-12-01T00:34:11;59.13;;;21.50;;
3843;SDS011;1937;51.444;6.484;2022-12-01T00:36:48;53.77;;;21.07;;
3843;SDS011;1937;51.444;6.484;2022-12-01T00:39:16;59.13;;;21.50;;
3843;SDS011;1937;51.444;6.484;2022-12-01T00:41:44;61.40;;;22.50;;
3843;SDS011;1937;51.444;6.484;2022-12-01T00:44:12;60.90;;;21.40;;
3843;SDS011;1937;51.444;6.484;2022-12-01T00:46:41;54.47;;;23.07;;
3843;SDS011;1937;51.444;6.484;2022-12-01T00:49:10;56.87;;;23.17;;
3843;SDS011;1937;51.444;6.484;2022-12-01T00:51:39;56.13;;;21.60;;
3843;SDS011;1937;51.444;6.484;2022-12-01T00:54:10;55.87;;;23.73;;
3843;SDS011;1937;51.444;6.484;2022-12-01T00:56:38;63.73;;;22.53;;
3843;SDS011;1937;51.444;6.484;2022-12-01T00:59:06;70.00;;;23.47;;
3843;SDS011;1937;51.444;6.484;2022-12-01T01:01:35;70.13;;;25.80;;
3843;SDS011;1937;51.444;6.484;2022-12-01T01:04:04;71.93;;;26.57;;
3843;SDS011;1937;51.444;6.484;2022-12-01T01:06:33;71.60;;;24.43;;
3843;SDS011;1937;51.444;6.484;2022-12-01T01:09:02;68.23;;;25.27;;
3843;SDS011;1937;51.444;6.484;2022-12-01T01:11:32;68.80;;;22.27;;
3843;SDS011;1937;51.444;6.484;2022-12-01T01:14:00;54.47;;;22.37;;
3843;SDS011;1937;51.444;6.484;2022-12-01T01:16:29;72.60;;;24.70;;
3843;SDS011;1937;51.444;6.484;2022-12-01T01:18:58;86.50;;;24.90;;
3843;SDS011;1937;51.444;6.484;2022-12-01T01:21:27;67.53;;;22.77;;
3843;SDS011;1937;51.444;6.484;2022-12-01T01:23:55;64.10;;;23.60;;
3843;SDS011;1937;51.444;6.484;2022-12-01T01:26:24;62.27;;;24.27;;
3843;SDS011;1937;51.444;6.484;2022-12-01T01:28:56;51.40;;;22.43;;
3843;SDS011;1937;51.444;6.484;2022-12-01T01:31:28;72.57;;;24.77;;
3843;SDS011;1937;51.444;6.484;2022-12-01T01:33:57;61.27;;;22.23;;
3843;SDS011;1937;51.444;6.484;2022-12-01T01:36:27;73.63;;;23.70;;
3843;SDS011;1937;51.444;6.484;2022-12-01T01:38:56;66.93;;;23.60;;
3843;SDS011;1937;51.444;6.484;2022-12-01T01:41:26;64.13;;;21.40;;
3843;SDS011;1937;51.444;6.484;2022-12-01T01:43:56;80.80;;;27.33;;
3843;SDS011;1937;51.444;6.484;2022-12-01T01:46:27;79.67;;;27.63;;
3843;SDS011;1937;51.444;6.484;2022-12-01T01:48:57;77.93;;;23.53;;
3843;SDS011;1937;51.444;6.484;2022-12-01T01:51:31;74.17;;;25.60;;
3843;SDS011;1937;51.444;6.484;2022-12-01T01:54:03;78.23;;;23.63;;
3843;SDS011;1937;51.444;6.484;2022-12-01T01:56:34;83.30;;;24.90;;
3843;SDS011;1937;51.444;6.484;2022-12-01T01:59:05;80.67;;;29.80;;
3843;SDS011;1937;51.444;6.484;2022-12-01T02:01:34;87.03;;;28.90;;
3843;SDS011;1937;51.444;6.484;2022-12-01T02:04:03;79.77;;;28.77;;
3843;SDS011;1937;51.444;6.484;2022-12-01T02:06:32;87.67;;;28.70;;
3843;SDS011;1937;51.444;6.484;2022-12-01T02:09:00;78.40;;;27.07;;
3843;SDS011;1937;51.444;6.484;2022-12-01T02:11:36;81.13;;;28.60;;
3843;SDS011;1937;51.444;6.484;2022-12-01T02:14:20;82.50;;;28.73;;
3843;SDS011;1937;51.444;6.484;2022-12-01T02:17:06;75.13;;;27.70;;
3843;SDS011;1937;51.444;6.484;2022-12-01T02:23:03;74.60;;;28.90;;
3843;SDS011;1937;51.444;6.484;2022-12-01T02:25:52;68.97;;;25.30;;
3843;SDS011;1937;51.444;6.484;2022-12-01T02:28:40;91.23;;;27.00;;
3843;SDS011;1937;51.444;6.484;2022-12-01T02:31:20;79.93;;;29.30;;
3843;SDS011;1937;51.444;6.484;2022-12-01T02:33:56;85.10;;;29.37;;
3843;SDS011;1937;51.444;6.484;2022-12-01T02:36:29;92.57;;;26.30;;
3843;SDS011;1937;51.444;6.484;2022-12-01T02:39:04;70.03;;;26.07;;
3843;SDS011;1937;51.444;6.484;2022-12-01T02:41:36;78.97;;;27.40;;
3843;SDS011;1937;51.444;6.484;2022-12-01T02:44:10;67.60;;;26.30;;
3843;SDS011;1937;51.444;6.484;2022-12-01T02:46:48;71.70;;;23.47;;
3843;SDS011;1937;51.444;6.484;2022-12-01T02:49:24;71.37;;;25.90;;
3843;SDS011;1937;51.444;6.484;2022-12-01T02:51:56;80.70;;;26.90;;
3843;SDS011;1937;51.444;6.484;2022-12-01T02:54:26;84.73;;;28.20;;
3843;SDS011;1937;51.444;6.484;2022-12-01T02:56:57;81.40;;;27.40;;
3843;SDS011;1937;51.444;6.484;2022-12-01T02:59:26;83.30;;;27.33;;
3843;SDS011;1937;51.444;6.484;2022-12-01T03:01:59;72.10;;;26.60;;
3843;SDS011;1937;51.444;6.484;2022-12-01T03:04:38;84.47;;;28.37;;
3843;SDS011;1937;51.444;6.484;2022-12-01T03:10:11;70.80;;;30.00;;
3843;SDS011;1937;51.444;6.484;2022-12-01T03:12:46;65.27;;;24.60;;
3843;SDS011;1937;51.444;6.484;2022-12-01T03:15:23;81.80;;;25.57;;
3843;SDS011;1937;51.444;6.484;2022-12-01T03:18:03;83.13;;;29.40;;
3843;SDS011;1937;51.444;6.484;2022-12-01T03:20:41;90.00;;;28.93;;
3843;SDS011;1937;51.444;6.484;2022-12-01T03:23:18;73.90;;;25.20;;
3843;SDS011;1937;51.444;6.484;2022-12-01T03:25:51;76.97;;;26.40;;
3843;SDS011;1937;51.444;6.484;2022-12-01T03:28:23;84.63;;;29.67;;
3843;SDS011;1937;51.444;6.484;2022-12-01T03:30:56;88.13;;;27.97;;
3843;SDS011;1937;51.444;6.484;2022-12-01T03:33:31;86.10;;;28.17;;
3843;SDS011;1937;51.444;6.484;2022-12-01T03:36:05;73.17;;;24.93;;
3843;SDS011;1937;51.444;6.484;2022-12-01T03:38:39;85.37;;;29.23;;
3843;SDS011;1937;51.444;6.484;2022-12-01T03:41:13;81.00;;;25.53;;
3843;SDS011;1937;51.444;6.484;2022-12-01T03:43:47;90.73;;;29.90;;
3843;SDS011;1937;51.444;6.484;2022-12-01T03:46:21;83.03;;;26.90;;
3843;SDS011;1937;51.444;6.484;2022-12-01T03:48:59;90.23;;;30.70;;
3843;SDS011;1937;51.444;6.484;2022-12-01T03:51:30;87.30;;;28.83;;
3843;SDS011;1937;51.444;6.484;2022-12-01T03:54:05;90.47;;;28.47;;
3843;SDS011;1937;51.444;6.484;2022-12-01T03:56:43;82.50;;;27.43;;
3843;SDS011;1937;51.444;6.484;2022-12-01T03:59:17;84.40;;;26.20;;
3843;SDS011;1937;51.444;6.484;2022-12-01T04:01:49;74.63;;;27.87;;
3843;SDS011;1937;51.444;6.484;2022-12-01T04:04:19;83.97;;;25.87;;
3843;SDS011;1937;51.444;6.484;2022-12-01T04:06:48;74.20;;;25.03;;
3843;SDS011;1937;51.444;6.484;2022-12-01T04:09:18;68.90;;;27.10;;
3843;SDS011;1937;51.444;6.484;2022-12-01T04:11:46;73.93;;;25.80;;
3843;SDS011;1937;51.444;6.484;2022-12-01T04:14:33;53.30;;;22.20;;
3843;SDS011;1937;51.444;6.484;2022-12-01T04:17:01;62.17;;;21.00;;
3843;SDS011;1937;51.444;6.484;2022-12-01T04:19:31;59.37;;;22.30;;
3843;SDS011;1937;51.444;6.484;2022-12-01T04:21:59;70.50;;;23.23;;
3843;SDS011;1937;51.444;6.484;2022-12-01T04:24:28;64.30;;;22.10;;
3843;SDS011;1937;51.444;6.484;2022-12-01T04:26:57;60.07;;;20.57;;
3843;SDS011;1937;51.444;6.484;2022-12-01T04:29:27;66.10;;;22.90;;
3843;SDS011;1937;51.444;6.484;2022-12-01T04:31:58;58.97;;;19.60;;
3843;SDS011;1937;51.444;6.484;2022-12-01T04:34:26;48.60;;;19.93;;
3843;SDS011;1937;51.444;6.484;2022-12-01T04:36:56;50.53;;;21.00;;
3843;SDS011;1937;51.444;6.484;2022-12-01T04:39:25;50.97;;;19.33;;
3843;SDS011;1937;51.444;6.484;2022-12-01T04:41:53;57.77;;;19.40;;
3843;SDS011;1937;51.444;6.484;2022-12-01T04:44:21;51.10;;;20.40;;
3843;SDS011;1937;51.444;6.484;2022-12-01T04:46:50;51.77;;;20.63;;
3843;SDS011;1937;51.444;6.484;2022-12-01T04:49:19;45.40;;;20.00;;
3843;SDS011;1937;51.444;6.484;2022-12-01T04:51:48;44.40;;;19.63;;
3843;SDS011;1937;51.444;6.484;2022-12-01T04:54:25;50.80;;;20.80;;
3843;SDS011;1937;51.444;6.484;2022-12-01T04:56:54;49.93;;;18.50;;
3843;SDS011;1937;51.444;6.484;2022-12-01T04:59:22;49.60;;;19.30;;
3843;SDS011;1937;51.444;6.484;2022-12-01T05:01:50;48.27;;;18.57;;
3843;SDS011;1937;51.444;6.484;2022-12-01T05:04:19;50.33;;;20.30;;
3843;SDS011;1937;51.444;6.484;2022-12-01T05:06:47;49.10;;;17.67;;
3843;SDS011;1937;51.444;6.484;2022-12-01T05:09:15;46.50;;;18.10;;
3843;SDS011;1937;51.444;6.484;2022-12-01T05:11:46;46.50;;;21.43;;
3843;SDS011;1937;51.444;6.484;2022-12-01T05:14:15;60.40;;;17.77;;
3843;SDS011;1937;51.444;6.484;2022-12-01T05:16:43;52.77;;;17.90;;
3843;SDS011;1937;51.444;6.484;2022-12-01T05:19:11;42.70;;;19.13;;
3843;SDS011;1937;51.444;6.484;2022-12-01T05:21:58;51.87;;;19.73;;
3843;SDS011;1937;51.444;6.484;2022-12-01T05:24:28;46.93;;;18.70;;
3843;SDS011;1937;51.444;6.484;2022-12-01T05:26:57;49.13;;;17.47;;
3843;SDS011;1937;51.444;6.484;2022-12-01T05:29:28;59.13;;;18.83;;
3843;SDS011;1937;51.444;6.484;2022-12-01T05:31:58;43.83;;;17.20;;
3843;SDS011;1937;51.444;6.484;2022-12-01T05:34:28;59.37;;;21.40;;
3843;SDS011;1937;51.444;6.484;2022-12-01T05:36:58;46.63;;;18.70;;
3843;SDS011;1937;51.444;6.484;2022-12-01T05:39:26;45.97;;;20.00;;
3843;SDS011;1937;51.444;6.484;2022-12-01T05:41:55;60.73;;;22.73;;
3843;SDS011;1937;51.444;6.484;2022-12-01T05:44:24;49.27;;;19.40;;
3843;SDS011;1937;51.444;6.484;2022-12-01T05:46:52;56.87;;;19.20;;
3843;SDS011;1937;51.444;6.484;2022-12-01T05:49:21;53.93;;;21.47;;
3843;SDS011;1937;51.444;6.484;2022-12-01T05:51:49;54.40;;;21.30;;
3843;SDS011;1937;51.444;6.484;2022-12-01T05:54:17;47.07;;;20.27;;
3843;SDS011;1937;51.444;6.484;2022-12-01T05:56:46;55.77;;;20.03;;
3843;SDS011;1937;51.444;6.484;2022-12-01T05:59:14;42.30;;;17.93;;
3843;SDS011;1937;51.444;6.484;2022-12-01T06:01:44;54.00;;;18.70;;
3843;SDS011;1937;51.444;6.484;2022-12-01T06:04:12;56.00;;;20.87;;
3843;SDS011;1937;51.444;6.484;2022-12-01T06:06:40;56.23;;;18.37;;
3843;SDS011;1937;51.444;6.484;2022-12-01T06:09:08;58.03;;;22.80;;
3843;SDS011;1937;51.444;6.484;2022-12-01T06:11:38;53.27;;;20.30;;
3843;SDS011;1937;51.444;6.484;2022-12-01T06:14:06;41.50;;;17.57;;
3843;SDS011;1937;51.444;6.484;2022-12-01T06:16:34;45.63;;;18.37;;
3843;SDS011;1937;51.444;6.484;2022-12-01T06:19:04;55.93;;;21.17;;
3843;SDS011;1937;51.444;6.484;2022-12-01T06:21:32;54.23;;;18.47;;
3843;SDS011;1937;51.444;6.484;2022-12-01T06:24:00;53.00;;;18.50;;
3843;SDS011;1937;51.444;6.484;2022-12-01T06:26:29;54.97;;;19.53;;
3843;SDS011;1937;51.444;6.484;2022-12-01T06:28:58;49.87;;;18.93;;
3843;SDS011;1937;51.444;6.484;2022-12-01T06:31:26;50.03;;;17.70;;
3843;SDS011;1937;51.444;6.484;2022-12-01T06:33:54;40.77;;;16.50;;
3843;SDS011;1937;51.444;6.484;2022-12-01T06:36:24;56.87;;;16.97;;
3843;SDS011;1937;51.444;6.484;2022-12-01T06:38:52;43.23;;;17.43;;
3843;SDS011;1937;51.444;6.484;2022-12-01T06:41:20;68.47;;;19.07;;
3843;SDS011;1937;51.444;6.484;2022-12-01T06:43:49;43.60;;;17.83;;
3843;SDS011;1937;51.444;6.484;2022-12-01T06:46:17;58.87;;;19.57;;
3843;SDS011;1937;51.444;6.484;2022-12-01T06:48:46;49.80;;;18.40;;
3843;SDS011;1937;51.444;6.484;2022-12-01T06:51:15;46.07;;;16.27;;
3843;SDS011;1937;51.444;6.484;2022-12-01T06:53:45;44.50;;;17.00;;
3843;SDS011;1937;51.444;6.484;2022-12-01T06:56:13;38.80;;;17.30;;
3843;SDS011;1937;51.444;6.484;2022-12-01T06:58:41;42.47;;;17.33;;
3843;SDS011;1937;51.444;6.484;2022-12-01T07:01:10;36.67;;;16.03;;
3843;SDS011;1937;51.444;6.484;2022-12-01T07:03:39;41.67;;;17.77;;
3843;SDS011;1937;51.444;6.484;2022-12-01T07:06:08;43.43;;;16.60;;
3843;SDS011;1937;51.444;6.484;2022-12-01T07:08:36;39.23;;;15.20;;
3843;SDS011;1937;51.444;6.484;2022-12-01T07:11:06;46.17;;;18.03;;
3843;SDS011;1937;51.444;6.484;2022-12-01T07:13:37;50.60;;;18.00;;
3843;SDS011;1937;51.444;6.484;2022-12-01T07:16:09;53.30;;;19.07;;
3843;SDS011;1937;51.444;6.484;2022-12-01T07:18:38;49.30;;;19.50;;
3843;SDS011;1937;51.444;6.484;2022-12-01T07:21:09;58.37;;;19.80;;
3843;SDS011;1937;51.444;6.484;2022-12-01T07:23:40;62.93;;;19.30;;
3843;SDS011;1937;51.444;6.484;2022-12-01T07:26:10;51.97;;;19.40;;
3843;SDS011;1937;51.444;6.484;2022-12-01T07:28:41;63.43;;;19.63;;
3843;SDS011;1937;51.444;6.484;2022-12-01T07:31:11;52.00;;;18.70;;
3843;SDS011;1937;51.444;6.484;2022-12-01T07:33:42;56.27;;;21.57;;
3843;SDS011;1937;51.444;6.484;2022-12-01T07:36:11;55.60;;;22.10;;
3843;SDS011;1937;51.444;6.484;2022-12-01T07:38:40;58.57;;;21.77;;
3843;SDS011;1937;51.444;6.484;2022-12-01T07:41:11;49.33;;;20.13;;
3843;SDS011;1937;51.444;6.484;2022-12-01T07:43:43;57.40;;;20.90;;
3843;SDS011;1937;51.444;6.484;2022-12-01T07:46:13;61.10;;;25.07;;
3843;SDS011;1937;51.444;6.484;2022-12-01T07:48:43;57.17;;;20.93;;
3843;SDS011;1937;51.444;6.484;2022-12-01T07:51:13;56.30;;;22.33;;
3843;SDS011;1937;51.444;6.484;2022-12-01T07:53:43;62.23;;;20.93;;
3843;SDS011;1937;51.444;6.484;2022-12-01T07:56:14;68.90;;;20.70;;
3843;SDS011;1937;51.444;6.484;2022-12-01T07:58:44;54.83;;;22.00;;
3843;SDS011;1937;51.444;6.484;2022-12-01T08:01:14;56.60;;;23.30;;
3843;SDS011;1937;51.444;6.484;2022-12-01T08:03:44;65.97;;;22.07;;
3843;SDS011;1937;51.444;6.484;2022-12-01T08:06:13;62.80;;;21.43;;
3843;SDS011;1937;51.444;6.484;2022-12-01T08:08:43;51.10;;;19.83;;
3843;SDS011;1937;51.444;6.484;2022-12-01T08:11:13;54.00;;;20.47;;
3843;SDS011;1937;51.444;6.484;2022-12-01T08:13:43;58.33;;;21.70;;
3843;SDS011;1937;51.444;6.484;2022-12-01T08:16:13;67.53;;;25.20;;
3843;SDS011;1937;51.444;6.484;2022-12-01T08:18:43;70.07;;;24.20;;
3843;SDS011;1937;51.444;6.484;2022-12-01T08:21:12;82.87;;;29.23;;
3843;SDS011;1937;51.444;6.484;2022-12-01T08:23:42;74.67;;;28.57;;
3843;SDS011;1937;51.444;6.484;2022-12-01T08:26:12;68.40;;;26.90;;
3843;SDS011;1937;51.444;6.484;2022-12-01T08:28:44;73.03;;;28.50;;
3843;SDS011;1937;51.444;6.484;2022-12-01T08:31:13;70.20;;;26.90;;
3843;SDS011;1937;51.444;6.484;2022-12-01T08:33:44;83.40;;;26.70;;
3843;SDS011;1937;51.444;6.484;2022-12-01T08:36:13;82.00;;;27.20;;
3843;SDS011;1937;51.444;6.484;2022-12-01T08:38:42;73.97;;;26.10;;
3843;SDS011;1937;51.444;6.484;2022-12-01T08:41:12;75.90;;;27.40;;
3843;SDS011;1937;51.444;6.484;2022-12-01T08:43:40;75.00;;;26.77;;
3843;SDS011;1937;51.444;6.484;2022-12-01T08:46:11;74.20;;;29.40;;
3843;SDS011;1937;51.444;6.484;2022-12-01T08:48:40;74.70;;;25.77;;
3843;SDS011;1937;51.444;6.484;2022-12-01T08:51:09;71.53;;;25.07;;
3843;SDS011;1937;51.444;6.484;2022-12-01T08:53:38;70.73;;;26.60;;
3843;SDS011;1937;51.444;6.484;2022-12-01T08:56:10;73.27;;;27.10;;
3843;SDS011;1937;51.444;6.484;2022-12-01T08:58:40;79.07;;;26.47;;
3843;SDS011;1937;51.444;6.484;2022-12-01T09:01:11;49.97;;;22.27;;
3843;SDS011;1937;51.444;6.484;2022-12-01T09:03:40;69.13;;;25.73;;
3843;SDS011;1937;51.444;6.484;2022-12-01T09:06:09;69.70;;;26.87;;
3843;SDS011;1937;51.444;6.484;2022-12-01T09:08:39;77.80;;;28.57;;
3843;SDS011;1937;51.444;6.484;2022-12-01T09:11:09;81.27;;;26.97;;
3843;SDS011;1937;51.444;6.484;2022-12-01T09:13:39;78.13;;;29.17;;
3843;SDS011;1937;51.444;6.484;2022-12-01T09:16:10;67.20;;;28.37;;
3843;SDS011;1937;51.444;6.484;2022-12-01T09:18:41;63.50;;;26.27;;
3843;SDS011;1937;51.444;6.484;2022-12-01T09:21:12;77.43;;;30.80;;
3843;SDS011;1937;51.444;6.484;2022-12-01T09:23:41;69.13;;;27.80;;
3843;SDS011;1937;51.444;6.484;2022-12-01T09:26:11;81.23;;;27.93;;
3843;SDS011;1937;51.444;6.484;2022-12-01T09:28:42;79.43;;;31.50;;
3843;SDS011;1937;51.444;6.484;2022-12-01T09:31:11;74.97;;;29.77;;
3843;SDS011;1937;51.444;6.484;2022-12-01T09:33:42;83.27;;;29.73;;
3843;SDS011;1937;51.444;6.484;2022-12-01T09:36:12;92.57;;;30.80;;
3843;SDS011;1937;51.444;6.484;2022-12-01T09:38:41;71.67;;;29.90;;
3843;SDS011;1937;51.444;6.484;2022-12-01T09:41:10;78.83;;;29.30;;
3843;SDS011;1937;51.444;6.484;2022-12-01T09:43:44;78.07;;;30.40;;
3843;SDS011;1937;51.444;6.484;2022-12-01T09:46:17;72.00;;;29.47;;
3843;SDS011;1937;51.444;6.484;2022-12-01T09:48:52;69.77;;;28.37;;
3843;SDS011;1937;51.444;6.484;2022-12-01T09:51:22;72.53;;;28.90;;
3843;SDS011;1937;51.444;6.484;2022-12-01T09:53:54;63.67;;;28.07;;
3843;SDS011;1937;51.444;6.484;2022-12-01T09:56:25;67.90;;;27.37;;
3843;SDS011;1937;51.444;6.484;2022-12-01T09:58:56;62.70;;;24.20;;
3843;SDS011;1937;51.444;6.484;2022-12-01T10:01:30;69.10;;;25.70;;
3843;SDS011;1937;51.444;6.484;2022-12-01T10:04:03;59.60;;;24.87;;
3843;SDS011;1937;51.444;6.484;2022-12-01T10:06:40;64.97;;;23.90;;
3843;SDS011;1937;51.444;6.484;2022-12-01T10:09:17;60.30;;;24.67;;
3843;SDS011;1937;51.444;6.484;2022-12-01T10:11:49;57.57;;;26.10;;
3843;SDS011;1937;51.444;6.484;2022-12-01T10:14:20;63.83;;;24.43;;
3843;SDS011;1937;51.444;6.484;2022-12-01T10:16:53;58.77;;;21.40;;
3843;SDS011;1937;51.444;6.484;2022-12-01T10:19:37;55.30;;;22.53;;
3843;SDS011;1937;51.444;6.484;2022-12-01T10:22:18;63.60;;;21.87;;
3843;SDS011;1937;51.444;6.484;2022-12-01T10:25:05;53.30;;;23.00;;
3843;SDS011;1937;51.444;6.484;2022-12-01T10:27:42;58.83;;;22.53;;
3843;SDS011;1937;51.444;6.484;2022-12-01T10:30:25;48.20;;;19.43;;
3843;SDS011;1937;51.444;6.484;2022-12-01T10:32:54;51.90;;;21.17;;
3843;SDS011;1937;51.444;6.484;2022-12-01T10:35:31;49.43;;;21.13;;
3843;SDS011;1937;51.444;6.484;2022-12-01T10:38:03;44.70;;;19.17;;
3843;SDS011;1937;51.444;6.484;2022-12-01T10:40:51;45.47;;;19.53;;
3843;SDS011;1937;51.444;6.484;2022-12-01T10:43:25;46.97;;;19.93;;
3843;SDS011;1937;51.444;6.484;2022-12-01T10:45:57;51.23;;;19.67;;
3843;SDS011;1937;51.444;6.484;2022-12-01T10:48:30;49.30;;;20.60;;
3843;SDS011;1937;51.444;6.484;2022-12-01T10:51:17;42.40;;;19.20;;
3843;SDS011;1937;51.444;6.484;2022-12-01T10:53:46;47.47;;;19.63;;
3843;SDS011;1937;51.444;6.484;2022-12-01T10:56:22;39.73;;;16.30;;
3843;SDS011;1937;51.444;6.484;2022-12-01T10:58:53;47.97;;;20.90;;
3843;SDS011;1937;51.444;6.484;2022-12-01T11:01:23;54.30;;;19.80;;
3843;SDS011;1937;51.444;6.484;2022-12-01T11:03:56;45.43;;;17.67;;
3843;SDS011;1937;51.444;6.484;2022-12-01T11:06:32;46.27;;;20.10;;
3843;SDS011;1937;51.444;6.484;2022-12-01T11:09:03;47.10;;;19.27;;
3843;SDS011;1937;51.444;6.484;2022-12-01T11:11:43;44.50;;;17.43;;
3843;SDS011;1937;51.444;6.484;2022-12-01T11:14:20;56.77;;;18.33;;
3843;SDS011;1937;51.444;6.484;2022-12-01T11:16:53;44.80;;;17.50;;
3843;SDS011;1937;51.444;6.484;2022-12-01T11:19:27;38.83;;;19.20;;
3843;SDS011;1937;51.444;6.484;2022-12-01T11:21:59;50.13;;;19.03;;
3843;SDS011;1937;51.444;6.484;2022-12-01T11:24:44;48.23;;;17.70;;
3843;SDS011;1937;51.444;6.484;2022-12-01T11:27:21;40.80;;;17.37;;
3843;SDS011;1937;51.444;6.484;2022-12-01T11:29:53;44.10;;;19.13;;
3843;SDS011;1937;51.444;6.484;2022-12-01T11:32:23;47.17;;;18.53;;
3843;SDS011;1937;51.444;6.484;2022-12-01T11:34:55;41.57;;;18.80;;
3843;SDS011;1937;51.444;6.484;2022-12-01T11:37:30;43.70;;;19.63;;
3843;SDS011;1937;51.444;6.484;2022-12-01T11:40:06;46.10;;;19.30;;
3843;SDS011;1937;51.444;6.484;2022-12-01T11:42:42;43.93;;;17.93;;
3843;SDS011;1937;51.444;6.484;2022-12-01T11:45:24;49.10;;;20.30;;
3843;SDS011;1937;51.444;6.484;2022-12-01T11:47:57;50.67;;;20.63;;
3843;SDS011;1937;51.444;6.484;2022-12-01T11:50:29;49.90;;;19.40;;
3843;SDS011;1937;51.444;6.484;2022-12-01T11:53:00;56.93;;;20.10;;
3843;SDS011;1937;51.444;6.484;2022-12-01T11:55:29;40.10;;;16.73;;
3843;SDS011;1937;51.444;6.484;2022-12-01T11:57:58;42.53;;;18.30;;
3843;SDS011;1937;51.444;6.484;2022-12-01T12:00:33;51.80;;;21.10;;
3843;SDS011;1937;51.444;6.484;2022-12-01T12:03:17;50.03;;;21.00;;
3843;SDS011;1937;51.444;6.484;2022-12-01T12:05:55;46.73;;;17.90;;
3843;SDS011;1937;51.444;6.484;2022-12-01T12:08:33;51.77;;;19.17;;
3843;SDS011;1937;51.444;6.484;2022-12-01T12:11:11;51.97;;;19.40;;
3843;SDS011;1937;51.444;6.484;2022-12-01T12:13:51;47.23;;;21.00;;
3843;SDS011;1937;51.444;6.484;2022-12-01T12:16:37;45.87;;;19.27;;
3843;SDS011;1937;51.444;6.484;2022-12-01T12:19:22;49.67;;;22.37;;
3843;SDS011;1937;51.444;6.484;2022-12-01T12:22:06;57.83;;;20.73;;
3843;SDS011;1937;51.444;6.484;2022-12-01T12:24:47;49.90;;;19.80;;
3843;SDS011;1937;51.444;6.484;2022-12-01T12:27:25;50.13;;;19.37;;
3843;SDS011;1937;51.444;6.484;2022-12-01T12:30:05;50.93;;;19.77;;
3843;SDS011;1937;51.444;6.484;2022-12-01T12:32:45;55.57;;;20.57;;
3843;SDS011;1937;51.444;6.484;2022-12-01T12:35:30;53.70;;;19.70;;
3843;SDS011;1937;51.444;6.484;2022-12-01T12:38:15;55.53;;;22.10;;
3843;SDS011;1937;51.444;6.484;2022-12-01T12:40:53;55.77;;;20.60;;
3843;SDS011;1937;51.444;6.484;2022-12-01T12:43:33;76.63;;;22.87;;
3843;SDS011;1937;51.444;6.484;2022-12-01T12:46:09;50.70;;;21.00;;
3843;SDS011;1937;51.444;6.484;2022-12-01T12:48:49;65.53;;;21.17;;
3843;SDS011;1937;51.444;6.484;2022-12-01T12:51:26;55.10;;;20.77;;
3843;SDS011;1937;51.444;6.484;2022-12-01T12:53:58;55.30;;;21.20;;
3843;SDS011;1937;51.444;6.484;2022-12-01T12:56:35;48.00;;;19.63;;
3843;SDS011;1937;51.444;6.484;2022-12-01T12:59:06;49.27;;;20.03;;
3843;SDS011;1937;51.444;6.484;2022-12-01T13:01:40;44.97;;;19.00;;
3843;SDS011;1937;51.444;6.484;2022-12-01T13:04:13;43.10;;;20.30;;
3843;SDS011;1937;51.444;6.484;2022-12-01T13:06:47;50.40;;;19.00;;
3843;SDS011;1937;51.444;6.484;2022-12-01T13:09:21;54.10;;;19.37;;
3843;SDS011;1937;51.444;6.484;2022-12-01T13:11:56;44.93;;;21.40;;
3843;SDS011;1937;51.444;6.484;2022-12-01T13:14:32;46.50;;;19.03;;
3843;SDS011;1937;51.444;6.484;2022-12-01T13:17:11;49.67;;;17.53;;
3843;SDS011;1937;51.444;6.484;2022-12-01T13:19:46;54.97;;;19.87;;
3843;SDS011;1937;51.444;6.484;2022-12-01T13:22:15;39.03;;;18.07;;
3843;SDS011;1937;51.444;6.484;2022-12-01T13:24:47;42.67;;;18.30;;
3843;SDS011;1937;51.444;6.484;2022-12-01T13:27:17;48.50;;;19.37;;
3843;SDS011;1937;51.444;6.484;2022-12-01T13:29:51;38.20;;;17.33;;
3843;SDS011;1937;51.444;6.484;2022-12-01T13:32:25;42.17;;;17.83;;
3843;SDS011;1937;51.444;6.484;2022-12-01T13:34:55;45.23;;;18.67;;
3843;SDS011;1937;51.444;6.484;2022-12-01T13:37:26;47.83;;;19.70;;
3843;SDS011;1937;51.444;6.484;2022-12-01T13:40:05;43.93;;;19.00;;
3843;SDS011;1937;51.444;6.484;2022-12-01T13:42:38;47.30;;;18.13;;
3843;SDS011;1937;51.444;6.484;2022-12-01T13:45:21;49.07;;;17.83;;
3843;SDS011;1937;51.444;6.484;2022-12-01T13:47:51;49.33;;;19.33;;
3843;SDS011;1937;51.444;6.484;2022-12-01T13:50:37;46.53;;;18.67;;
3843;SDS011;1937;51.444;6.484;2022-12-01T13:53:29;54.90;;;18.23;;
3843;SDS011;1937;51.444;6.484;2022-12-01T13:56:04;36.93;;;18.30;;
3843;SDS011;1937;51.444;6.484;2022-12-01T13:58:53;41.13;;;17.83;;
3843;SDS011;1937;51.444;6.484;2022-12-01T14:01:45;47.50;;;19.53;;
3843;SDS011;1937;51.444;6.484;2022-12-01T14:04:21;36.60;;;17.63;;
3843;SDS011;1937;51.444;6.484;2022-12-01T14:07:18;49.10;;;19.17;;
3843;SDS011;1937;51.444;6.484;2022-12-01T14:09:53;46.33;;;18.17;;
3843;SDS011;1937;51.444;6.484;2022-12-01T14:12:33;48.67;;;18.90;;
3843;SDS011;1937;51.444;6.484;2022-12-01T14:15:20;46.40;;;19.60;;
3843;SDS011;1937;51.444;6.484;2022-12-01T14:17:57;57.63;;;19.80;;
3843;SDS011;1937;51.444;6.484;2022-12-01T14:20:29;62.20;;;20.50;;
3843;SDS011;1937;51.444;6.484;2022-12-01T14:23:03;48.60;;;20.23;;
3843;SDS011;1937;51.444;6.484;2022-12-01T14:25:38;48.17;;;21.93;;
3843;SDS011;1937;51.444;6.484;2022-12-01T14:28:12;58.37;;;21.90;;
3843;SDS011;1937;51.444;6.484;2022-12-01T14:31:02;53.43;;;22.57;;
3843;SDS011;1937;51.444;6.484;2022-12-01T14:33:41;52.23;;;20.83;;
3843;SDS011;1937;51.444;6.484;2022-12-01T14:36:13;53.90;;;21.77;;
3843;SDS011;1937;51.444;6.484;2022-12-01T14:38:46;56.83;;;21.37;;
3843;SDS011;1937;51.444;6.484;2022-12-01T14:41:19;58.00;;;20.93;;
3843;SDS011;1937;51.444;6.484;2022-12-01T14:43:51;49.70;;;21.47;;
3843;SDS011;1937;51.444;6.484;2022-12-01T14:46:37;52.10;;;19.93;;
3843;SDS011;1937;51.444;6.484;2022-12-01T14:49:10;52.53;;;23.17;;
3843;SDS011;1937;51.444;6.484;2022-12-01T14:51:43;55.87;;;23.80;;
3843;SDS011;1937;51.444;6.484;2022-12-01T14:54:19;58.03;;;24.50;;
3843;SDS011;1937;51.444;6.484;2022-12-01T14:56:51;52.03;;;22.13;;
3843;SDS011;1937;51.444;6.484;2022-12-01T14:59:24;49.57;;;21.00;;
3843;SDS011;1937;51.444;6.484;2022-12-01T15:01:56;55.60;;;23.03;;
3843;SDS011;1937;51.444;6.484;2022-12-01T15:04:33;56.63;;;21.23;;
3843;SDS011;1937;51.444;6.484;2022-12-01T15:07:20;54.60;;;22.50;;
3843;SDS011;1937;51.444;6.484;2022-12-01T15:09:59;55.30;;;21.30;;
3843;SDS011;1937;51.444;6.484;2022-12-01T15:12:28;57.87;;;22.30;;
3843;SDS011;1937;51.444;6.484;2022-12-01T15:14:57;48.33;;;22.00;;
3843;SDS011;1937;51.444;6.484;2022-12-01T15:17:29;56.40;;;22.73;;
3843;SDS011;1937;51.444;6.484;2022-12-01T15:19:58;61.10;;;24.93;;
3843;SDS011;1937;51.444;6.484;2022-12-01T15:22:28;66.37;;;27.77;;
3843;SDS011;1937;51.444;6.484;2022-12-01T15:25:04;61.90;;;24.33;;
3843;SDS011;1937;51.444;6.484;2022-12-01T15:27:31;63.53;;;23.30;;